createdAt,value
2023-04-18T00:00:23.616Z,0.61
2023-04-18T00:01:23.640Z,0.62
2023-04-18T00:02:23.864Z,0.62
2023-04-18T00:03:23.994Z,0.62
2023-04-18T00:04:23.926Z,0.63
2023-04-18T00:05:23.831Z,0.64
2023-04-18T00:06:23.865Z,0.62
2023-04-18T00:07:23.954Z,0.62
2023-04-18T00:08:23.990Z,0.61
2023-04-18T00:09:24.018Z,0.63
2023-04-18T00:10:24.077Z,0.61
2023-04-18T00:11:24.122Z,0.62
2023-04-18T00:12:24.173Z,0.61
2023-04-18T00:13:24.192Z,0.62
2023-04-18T00:14:24.273Z,0.62
2023-04-18T00:15:24.315Z,0.61
2023-04-18T00:16:24.386Z,0.63
2023-04-18T00:17:24.454Z,0.61
2023-04-18T00:18:24.477Z,0.63
2023-04-18T00:19:24.528Z,0.62
2023-04-18T00:20:24.586Z,0.62
2023-04-18T00:21:24.642Z,0.61
2023-04-18T00:22:24.672Z,0.61
2023-04-18T00:23:24.739Z,0.60
2023-04-18T00:24:24.808Z,0.59
2023-04-18T00:25:24.846Z,0.60
2023-04-18T00:26:24.887Z,0.60
2023-04-18T00:27:24.956Z,0.60
2023-04-18T00:28:24.984Z,0.60
2023-04-18T00:29:25.049Z,0.59
2023-04-18T00:30:25.099Z,0.60
2023-04-18T00:31:25.238Z,0.58
2023-04-18T00:32:25.241Z,0.60
2023-04-18T00:33:25.263Z,0.60
2023-04-18T00:34:25.314Z,0.61
2023-04-18T00:35:25.360Z,0.61
2023-04-18T00:36:25.420Z,0.63
2023-04-18T00:37:25.466Z,0.63
2023-04-18T00:38:25.551Z,0.65
2023-04-18T00:39:25.591Z,0.66
2023-04-18T00:40:25.683Z,0.67
2023-04-18T00:41:25.707Z,0.68
2023-04-18T00:42:25.774Z,0.68
2023-04-18T00:43:25.837Z,0.68
2023-04-18T00:44:25.916Z,0.70
2023-04-18T00:45:25.967Z,0.69
2023-04-18T00:46:26.070Z,0.71
2023-04-18T00:47:26.132Z,0.72
2023-04-18T00:48:26.134Z,0.71
2023-04-18T00:49:26.222Z,0.72
2023-04-18T00:50:26.279Z,0.74
2023-04-18T00:51:26.324Z,0.74
2023-04-18T00:52:26.380Z,0.74
2023-04-18T00:53:26.453Z,0.75
2023-04-18T00:54:26.554Z,0.75
2023-04-18T00:55:26.634Z,0.74
2023-04-18T00:56:26.661Z,0.76
2023-04-18T00:57:26.687Z,0.76
2023-04-18T00:58:26.839Z,0.74
2023-04-18T00:59:26.812Z,0.75
2023-04-18T01:00:26.937Z,0.76
2023-04-18T01:01:26.994Z,0.74
2023-04-18T01:02:27.125Z,0.75
2023-04-18T01:03:27.201Z,0.75
2023-04-18T01:04:27.243Z,0.74
2023-04-18T01:05:27.223Z,0.75
2023-04-18T01:06:27.272Z,0.74
2023-04-18T01:07:27.321Z,0.72
2023-04-18T01:08:27.384Z,0.71
2023-04-18T01:09:27.458Z,0.71
2023-04-18T01:10:27.501Z,0.70
2023-04-18T01:11:27.569Z,0.72
2023-04-18T01:12:27.639Z,0.71
2023-04-18T01:13:27.670Z,0.69
2023-04-18T01:14:27.745Z,0.68
2023-04-18T01:15:27.773Z,0.65
2023-04-18T01:16:27.895Z,0.66
2023-04-18T01:17:27.915Z,0.66
2023-04-18T01:18:27.995Z,0.67
2023-04-18T01:19:28.045Z,0.65
2023-04-18T01:20:28.119Z,0.64
2023-04-18T01:21:28.149Z,0.64
2023-04-18T01:22:28.245Z,0.65
2023-04-18T01:23:28.311Z,0.65
2023-04-18T01:24:28.363Z,0.65
2023-04-18T01:25:28.415Z,0.65
2023-04-18T01:26:28.468Z,0.65
2023-04-18T01:27:28.488Z,0.67
2023-04-18T01:28:28.587Z,0.63
2023-04-18T01:29:28.661Z,0.62
2023-04-18T01:30:28.701Z,0.61
2023-04-18T01:31:28.751Z,0.61
2023-04-18T01:32:28.793Z,0.60
2023-04-18T01:33:28.825Z,0.61
2023-04-18T01:34:28.914Z,0.61
2023-04-18T01:35:28.918Z,0.61
2023-04-18T01:36:28.988Z,0.59
2023-04-18T01:37:29.039Z,0.60
2023-04-18T01:38:29.078Z,0.59
2023-04-18T01:39:29.178Z,0.60
2023-04-18T01:40:29.257Z,0.58
2023-04-18T01:41:29.257Z,0.59
2023-04-18T01:42:29.312Z,0.59
2023-04-18T01:43:29.385Z,0.57
2023-04-18T01:44:29.470Z,0.56
2023-04-18T01:45:29.528Z,0.56
2023-04-18T01:46:29.622Z,0.55
2023-04-18T01:47:29.644Z,0.55
2023-04-18T01:48:29.713Z,0.54
2023-04-18T01:49:29.801Z,0.54
2023-04-18T01:50:29.806Z,0.53
2023-04-18T01:51:29.941Z,0.52
2023-04-18T01:52:29.964Z,0.52
2023-04-18T01:53:30.020Z,0.51
2023-04-18T01:54:30.109Z,0.50
2023-04-18T01:55:30.139Z,0.51
2023-04-18T01:56:30.164Z,0.50
2023-04-18T01:57:30.256Z,0.51
2023-04-18T01:58:30.288Z,0.52
2023-04-18T01:59:30.360Z,0.51
2023-04-18T02:00:30.456Z,0.51
2023-04-18T02:01:30.468Z,0.50
2023-04-18T02:02:30.622Z,0.50
2023-04-18T02:03:30.757Z,0.50
2023-04-18T02:04:30.614Z,0.50
2023-04-18T02:05:30.656Z,0.51
2023-04-18T02:06:30.720Z,0.50
2023-04-18T02:07:30.740Z,0.52
2023-04-18T02:08:30.785Z,0.53
2023-04-18T02:09:30.831Z,0.52
2023-04-18T02:10:30.866Z,0.52
2023-04-18T02:11:30.909Z,0.50
2023-04-18T02:12:30.972Z,0.51
2023-04-18T02:13:31.006Z,0.50
2023-04-18T02:14:31.078Z,0.51
2023-04-18T02:15:31.110Z,0.52
2023-04-18T02:16:31.190Z,0.50
2023-04-18T02:17:31.178Z,0.51
2023-04-18T02:18:31.204Z,0.50
2023-04-18T02:19:31.180Z,0.50
2023-04-18T02:20:31.200Z,0.51
2023-04-18T02:21:31.244Z,0.51
2023-04-18T02:22:31.331Z,0.51
2023-04-18T02:23:31.435Z,0.51
2023-04-18T02:24:31.389Z,0.51
2023-04-18T02:25:31.434Z,0.51
2023-04-18T02:26:31.452Z,0.51
2023-04-18T02:27:31.476Z,0.52
2023-04-18T02:28:31.508Z,0.50
2023-04-18T02:29:31.523Z,0.50
2023-04-18T02:30:31.538Z,0.51
2023-04-18T02:31:31.635Z,0.50
2023-04-18T02:32:31.669Z,0.52
2023-04-18T02:33:31.642Z,0.53
2023-04-18T02:34:31.714Z,0.51
2023-04-18T02:35:31.737Z,0.51
2023-04-18T02:36:31.710Z,0.51
2023-04-18T02:37:31.719Z,0.52
2023-04-18T02:38:31.759Z,0.53
2023-04-18T02:39:31.795Z,0.53
2023-04-18T02:40:31.743Z,0.53
2023-04-18T02:41:31.794Z,0.55
2023-04-18T02:42:31.798Z,0.53
2023-04-18T02:43:31.832Z,0.55
2023-04-18T02:44:31.821Z,0.55
2023-04-18T02:45:31.862Z,0.55
2023-04-18T02:46:31.858Z,0.53
2023-04-18T02:47:40.518Z,0.57
2023-04-18T02:48:32.875Z,0.57
2023-04-18T02:49:31.863Z,0.58
2023-04-18T02:50:31.857Z,0.58
2023-04-18T02:51:31.828Z,0.59
2023-04-18T02:52:31.811Z,0.58
2023-04-18T02:53:31.797Z,0.59
2023-04-18T02:54:31.808Z,0.59
2023-04-18T02:55:31.779Z,0.59
2023-04-18T02:56:31.787Z,0.60
2023-04-18T02:57:31.772Z,0.60
2023-04-18T02:58:31.787Z,0.59
2023-04-18T02:59:32.022Z,0.58
2023-04-18T03:00:31.751Z,0.55
2023-04-18T03:01:31.781Z,0.56
2023-04-18T03:02:32.153Z,0.58
2023-04-18T03:03:31.777Z,0.55
2023-04-18T03:04:31.725Z,0.57
2023-04-18T03:05:31.706Z,0.56
2023-04-18T03:06:31.745Z,0.55
2023-04-18T03:07:31.715Z,0.54
2023-04-18T03:08:31.721Z,0.54
2023-04-18T03:09:31.704Z,0.53
2023-04-18T03:10:31.700Z,0.55
2023-04-18T03:11:31.790Z,0.56
2023-04-18T03:12:31.659Z,0.54
2023-04-18T03:13:31.674Z,0.58
2023-04-18T03:14:31.655Z,0.57
2023-04-18T03:15:31.663Z,0.58
2023-04-18T03:16:31.668Z,0.60
2023-04-18T03:17:31.728Z,0.59
2023-04-18T03:18:31.606Z,0.58
2023-04-18T03:19:31.618Z,0.57
2023-04-18T03:20:31.603Z,0.61
2023-04-18T03:21:31.617Z,0.60
2023-04-18T03:22:31.603Z,0.58
2023-04-18T03:23:31.610Z,0.56
2023-04-18T03:24:31.595Z,0.54
2023-04-18T03:25:31.581Z,0.56
2023-04-18T03:26:31.562Z,0.55
2023-04-18T03:27:31.558Z,0.55
2023-04-18T03:28:31.555Z,0.55
2023-04-18T03:29:31.575Z,0.55
2023-04-18T03:30:31.522Z,0.56
2023-04-18T03:31:31.585Z,0.56
2023-04-18T03:32:31.550Z,0.57
2023-04-18T03:33:31.515Z,0.56
2023-04-18T03:34:31.502Z,0.59
2023-04-18T03:35:31.508Z,0.57
2023-04-18T03:36:31.490Z,0.58
2023-04-18T03:37:31.487Z,0.59
2023-04-18T03:38:31.461Z,0.57
2023-04-18T03:39:31.476Z,0.61
2023-04-18T03:40:31.444Z,0.60
2023-04-18T03:41:31.457Z,0.60
2023-04-18T03:42:31.454Z,0.61
2023-04-18T03:43:31.459Z,0.60
2023-04-18T03:44:31.454Z,0.59
2023-04-18T03:45:31.424Z,0.58
2023-04-18T03:46:31.475Z,0.59
2023-04-18T03:47:31.475Z,0.61
2023-04-18T03:48:31.429Z,0.60
2023-04-18T03:49:31.418Z,0.59
2023-04-18T03:50:31.392Z,0.60
2023-04-18T03:51:31.364Z,0.59
2023-04-18T03:52:31.422Z,0.59
2023-04-18T03:53:31.357Z,0.60
2023-04-18T03:54:31.376Z,0.59
2023-04-18T03:55:31.349Z,0.60
2023-04-18T03:56:31.349Z,0.60
2023-04-18T03:57:31.350Z,0.59
2023-04-18T03:58:31.357Z,0.61
2023-04-18T03:59:31.338Z,0.61
2023-04-18T04:00:31.407Z,0.63
2023-04-18T04:01:31.355Z,0.64
2023-04-18T04:02:31.455Z,0.65
2023-04-18T04:03:31.406Z,0.64
2023-04-18T04:04:31.333Z,0.66
2023-04-18T04:05:31.317Z,0.68
2023-04-18T04:06:31.269Z,0.68
2023-04-18T04:07:31.313Z,0.68
2023-04-18T04:08:31.274Z,0.68
2023-04-18T04:09:31.268Z,0.69
2023-04-18T04:10:31.226Z,0.68
2023-04-18T04:11:31.238Z,0.68
2023-04-18T04:12:31.233Z,0.69
2023-04-18T04:13:31.208Z,0.71
2023-04-18T04:14:31.243Z,0.71
2023-04-18T04:15:31.204Z,0.71
2023-04-18T04:16:31.191Z,0.72
2023-04-18T04:17:31.207Z,0.73
2023-04-18T04:18:31.259Z,0.74
2023-04-18T04:19:31.151Z,0.73
2023-04-18T04:20:31.162Z,0.75
2023-04-18T04:21:31.158Z,0.77
2023-04-18T04:22:31.147Z,0.77
2023-04-18T04:23:31.154Z,0.75
2023-04-18T04:24:31.133Z,0.78
2023-04-18T04:25:31.143Z,0.77
2023-04-18T04:26:31.111Z,0.79
2023-04-18T04:27:31.127Z,0.78
2023-04-18T04:28:31.137Z,0.77
2023-04-18T04:29:31.119Z,0.78
2023-04-18T04:30:31.095Z,0.77
2023-04-18T04:31:31.109Z,0.76
2023-04-18T04:32:31.155Z,0.78
2023-04-18T04:33:31.089Z,0.79
2023-04-18T04:34:31.100Z,0.78
2023-04-18T04:35:31.107Z,0.80
2023-04-18T04:36:31.054Z,0.79
2023-04-18T04:37:31.159Z,0.80
2023-04-18T04:38:31.348Z,0.81
2023-04-18T04:39:31.067Z,0.84
2023-04-18T04:40:31.096Z,0.80
2023-04-18T04:41:31.074Z,0.81
2023-04-18T04:42:31.074Z,0.81
2023-04-18T04:43:31.104Z,0.83
2023-04-18T04:44:31.102Z,0.84
2023-04-18T04:45:31.139Z,0.86
2023-04-18T04:46:31.071Z,0.86
2023-04-18T04:47:31.158Z,0.86
2023-04-18T04:48:31.078Z,0.89
2023-04-18T04:49:31.070Z,0.90
2023-04-18T04:50:31.084Z,0.93
2023-04-18T04:51:31.059Z,0.97
2023-04-18T04:52:31.057Z,1.00
2023-04-18T04:53:31.079Z,1.05
2023-04-18T04:54:31.095Z,1.13
2023-04-18T04:55:31.088Z,1.12
2023-04-18T04:56:31.081Z,1.13
2023-04-18T04:57:31.076Z,1.18
2023-04-18T04:58:31.107Z,1.22
2023-04-18T04:59:31.073Z,1.28
2023-04-18T05:00:31.108Z,1.30
2023-04-18T05:01:31.157Z,1.38
2023-04-18T05:02:31.226Z,1.35
2023-04-18T05:03:31.308Z,1.42
2023-04-18T05:04:31.234Z,1.44
2023-04-18T05:05:31.112Z,1.50
2023-04-18T05:06:31.130Z,1.48
2023-04-18T05:07:31.121Z,1.51
2023-04-18T05:08:31.146Z,1.58
2023-04-18T05:09:31.186Z,1.53
2023-04-18T05:10:31.189Z,1.62
2023-04-18T05:11:31.196Z,1.65
2023-04-18T05:12:31.166Z,1.68
2023-04-18T05:13:31.183Z,1.71
2023-04-18T05:14:31.180Z,1.69
2023-04-18T05:15:31.197Z,1.68
2023-04-18T05:16:31.219Z,1.70
2023-04-18T05:17:31.207Z,1.72
2023-04-18T05:18:33.002Z,1.75
2023-04-18T05:19:31.203Z,1.80
2023-04-18T05:20:31.230Z,1.78
2023-04-18T05:21:31.193Z,1.80
2023-04-18T05:22:31.222Z,1.82
2023-04-18T05:23:31.240Z,1.80
2023-04-18T05:24:31.167Z,1.82
2023-04-18T05:25:31.183Z,1.87
2023-04-18T05:26:31.188Z,1.89
2023-04-18T05:27:31.174Z,1.90
2023-04-18T05:28:31.159Z,1.91
2023-04-18T05:29:31.166Z,1.93
2023-04-18T05:30:31.167Z,1.93
2023-04-18T05:31:31.138Z,1.92
2023-04-18T05:32:31.135Z,1.92
2023-04-18T05:33:31.108Z,1.99
2023-04-18T05:34:31.118Z,2.01
2023-04-18T05:35:31.103Z,2.03
2023-04-18T05:36:31.112Z,2.02
2023-04-18T05:37:31.101Z,2.06
2023-04-18T05:38:31.089Z,2.08
2023-04-18T05:39:31.081Z,2.10
2023-04-18T05:40:31.563Z,2.27
2023-04-18T05:41:31.058Z,2.33
2023-04-18T05:42:31.067Z,2.65
2023-04-18T05:43:31.049Z,2.83
2023-04-18T05:44:31.041Z,3.06
2023-04-18T05:45:31.051Z,3.27
2023-04-18T05:46:31.103Z,3.42
2023-04-18T05:47:31.062Z,3.50
2023-04-18T05:48:31.036Z,4.00
2023-04-18T05:49:30.997Z,4.33
2023-04-18T05:50:31.031Z,4.57
2023-04-18T05:51:30.973Z,4.65
2023-04-18T05:52:31.000Z,4.63
2023-04-18T05:53:31.003Z,4.73
2023-04-18T05:54:30.983Z,5.21
2023-04-18T05:55:30.963Z,5.50
2023-04-18T05:56:30.983Z,5.67
2023-04-18T05:57:30.988Z,5.94
2023-04-18T05:58:30.939Z,6.01
2023-04-18T05:59:30.954Z,5.85
2023-04-18T06:00:30.912Z,6.13
2023-04-18T06:01:30.999Z,6.17
2023-04-18T06:02:31.028Z,6.08
2023-04-18T06:03:31.097Z,5.99
2023-04-18T06:04:31.040Z,5.97
2023-04-18T06:05:31.346Z,6.00
2023-04-18T06:06:30.887Z,6.04
2023-04-18T06:07:31.266Z,5.97
2023-04-18T06:08:30.855Z,5.94
2023-04-18T06:09:30.865Z,5.88
2023-04-18T06:10:30.890Z,5.78
2023-04-18T06:11:30.822Z,5.64
2023-04-18T06:12:30.865Z,5.62
2023-04-18T06:13:30.845Z,5.67
2023-04-18T06:14:30.848Z,5.56
2023-04-18T06:15:30.848Z,5.53
2023-04-18T06:16:30.921Z,5.51
2023-04-18T06:17:30.921Z,5.37
2023-04-18T06:18:30.930Z,5.19
2023-04-18T06:19:30.979Z,5.08
2023-04-18T06:20:31.021Z,5.01
2023-04-18T06:21:31.051Z,4.92
2023-04-18T06:22:31.090Z,4.89
2023-04-18T06:23:31.162Z,4.86
2023-04-18T06:24:31.373Z,4.80
2023-04-18T06:25:31.223Z,4.60
2023-04-18T06:26:31.241Z,4.59
2023-04-18T06:27:32.044Z,4.46
2023-04-18T06:28:31.357Z,4.52
2023-04-18T06:29:31.347Z,4.43
2023-04-18T06:30:31.427Z,4.32
2023-04-18T06:31:31.498Z,4.32
2023-04-18T06:32:31.563Z,4.26
2023-04-18T06:33:31.534Z,4.32
2023-04-18T06:34:31.589Z,4.23
2023-04-18T06:35:31.601Z,4.21
2023-04-18T06:36:31.659Z,4.28
2023-04-18T06:37:31.695Z,4.21
2023-04-18T06:38:31.766Z,4.18
2023-04-18T06:39:31.926Z,4.17
2023-04-18T06:40:31.826Z,4.15
2023-04-18T06:41:31.825Z,4.18
2023-04-18T06:42:31.902Z,4.13
2023-04-18T06:43:31.957Z,4.10
2023-04-18T06:44:31.965Z,4.14
2023-04-18T06:45:32.112Z,4.05
2023-04-18T06:46:32.061Z,4.12
2023-04-18T06:47:32.072Z,3.97
2023-04-18T06:48:32.080Z,3.92
2023-04-18T06:49:32.128Z,3.83
2023-04-18T06:50:32.149Z,3.99
2023-04-18T06:51:32.228Z,3.96
2023-04-18T06:52:32.234Z,3.88
2023-04-18T06:53:32.264Z,3.84
2023-04-18T06:54:32.276Z,3.86
2023-04-18T06:55:32.320Z,3.87
2023-04-18T06:56:34.417Z,3.90
2023-04-18T06:57:32.346Z,3.87
2023-04-18T06:58:32.319Z,3.91
2023-04-18T06:59:32.337Z,3.79
2023-04-18T07:00:32.345Z,3.86
2023-04-18T07:01:32.411Z,3.73
2023-04-18T07:02:32.451Z,3.78
2023-04-18T07:03:32.369Z,3.82
2023-04-18T07:04:32.352Z,3.74
2023-04-18T07:05:32.542Z,3.77
2023-04-18T07:06:33.047Z,3.77
2023-04-18T07:07:32.244Z,3.67
2023-04-18T07:08:32.263Z,3.69
2023-04-18T07:09:32.270Z,3.81
2023-04-18T07:10:32.242Z,3.76
2023-04-18T07:11:32.268Z,3.69
2023-04-18T07:12:32.235Z,3.66
2023-04-18T07:13:32.229Z,3.59
2023-04-18T07:14:34.082Z,3.61
2023-04-18T07:15:32.207Z,3.71
2023-04-18T07:16:32.235Z,3.58
2023-04-18T07:17:32.237Z,3.60
2023-04-18T07:18:37.965Z,3.70
2023-04-18T07:19:33.159Z,3.70
2023-04-18T07:20:32.174Z,3.70
2023-04-18T07:21:32.148Z,3.69
2023-04-18T07:22:32.137Z,3.63
2023-04-18T07:23:32.118Z,3.65
2023-04-18T07:24:32.127Z,3.59
2023-04-18T07:25:32.156Z,3.52
2023-04-18T07:26:32.112Z,3.53
2023-04-18T07:27:32.132Z,3.60
2023-04-18T07:28:32.147Z,3.53
2023-04-18T07:29:32.076Z,3.46
2023-04-18T07:30:32.117Z,3.48
2023-04-18T07:31:32.185Z,3.51
2023-04-18T07:32:32.090Z,3.50
2023-04-18T07:33:32.070Z,3.49
2023-04-18T07:34:32.049Z,3.54
2023-04-18T07:35:32.086Z,3.48
2023-04-18T07:36:32.047Z,3.57
2023-04-18T07:37:32.021Z,3.53
2023-04-18T07:38:32.024Z,3.34
2023-04-18T07:39:32.056Z,3.48
2023-04-18T07:40:32.073Z,3.46
2023-04-18T07:41:32.057Z,3.53
2023-04-18T07:42:32.101Z,3.43
2023-04-18T07:43:32.176Z,3.70
2023-04-18T07:44:32.108Z,4.43
2023-04-18T07:45:32.582Z,5.01
2023-04-18T07:46:32.172Z,5.47
2023-04-18T07:47:33.254Z,6.07
2023-04-18T07:48:32.177Z,5.69
2023-04-18T07:49:32.200Z,5.50
2023-04-18T07:50:32.605Z,6.05
2023-04-18T07:51:32.319Z,6.48
2023-04-18T07:52:32.344Z,6.87
2023-04-18T07:53:32.423Z,6.90
2023-04-18T07:54:32.462Z,7.20
2023-04-18T07:55:32.511Z,7.83
2023-04-18T07:56:32.567Z,8.20
2023-04-18T07:57:32.630Z,8.74
2023-04-18T07:58:32.690Z,9.62
2023-04-18T07:59:32.731Z,9.22
2023-04-18T08:00:32.822Z,9.16
2023-04-18T08:01:32.811Z,9.18
2023-04-18T08:02:33.011Z,9.69
2023-04-18T08:03:32.988Z,9.89
2023-04-18T08:04:33.169Z,10.26
2023-04-18T08:05:33.023Z,10.59
2023-04-18T08:06:32.973Z,10.89
2023-04-18T08:07:33.003Z,11.17
2023-04-18T08:08:33.021Z,10.84
2023-04-18T08:09:33.013Z,11.60
2023-04-18T08:10:33.048Z,11.97
2023-04-18T08:11:33.090Z,12.30
2023-04-18T08:12:33.081Z,12.78
2023-04-18T08:13:33.072Z,13.51
2023-04-18T08:14:33.070Z,14.16
2023-04-18T08:15:33.213Z,14.51
2023-04-18T08:16:33.087Z,15.06
2023-04-18T08:17:33.098Z,14.90
2023-04-18T08:18:33.111Z,15.08
2023-04-18T08:19:33.083Z,15.41
2023-04-18T08:20:33.073Z,15.53
2023-04-18T08:21:33.098Z,15.59
2023-04-18T08:22:33.135Z,16.19
2023-04-18T08:23:33.159Z,16.38
2023-04-18T08:24:33.174Z,17.81
2023-04-18T08:25:33.172Z,37.52
2023-04-18T08:26:33.234Z,29.10
2023-04-18T08:27:33.242Z,23.55
2023-04-18T08:28:33.274Z,20.06
2023-04-18T08:29:33.301Z,18.88
2023-04-18T08:30:33.336Z,18.23
2023-04-18T08:31:33.467Z,18.17
2023-04-18T08:32:33.483Z,16.98
2023-04-18T08:33:33.530Z,16.91
2023-04-18T08:34:33.545Z,16.58
2023-04-18T08:35:33.623Z,15.74
2023-04-18T08:36:34.106Z,15.84
2023-04-18T08:37:33.794Z,15.50
2023-04-18T08:38:33.804Z,15.89
2023-04-18T08:39:33.881Z,15.63
2023-04-18T08:40:33.917Z,15.46
2023-04-18T08:41:34.081Z,16.13
2023-04-18T08:42:34.032Z,16.12
2023-04-18T08:43:34.109Z,15.46
2023-04-18T08:44:34.153Z,15.68
2023-04-18T08:45:34.284Z,15.65
2023-04-18T08:46:34.588Z,15.25
2023-04-18T08:47:34.367Z,15.09
2023-04-18T08:48:34.385Z,15.27
2023-04-18T08:49:34.359Z,13.26
2023-04-18T08:50:34.389Z,14.10
2023-04-18T08:51:34.598Z,12.22
2023-04-18T08:52:34.445Z,12.63
2023-04-18T08:53:34.448Z,9.87
2023-04-18T08:54:34.441Z,11.02
2023-04-18T08:55:34.400Z,12.27
2023-04-18T08:56:34.628Z,12.61
2023-04-18T08:57:34.414Z,12.95
2023-04-18T08:58:34.407Z,10.66
2023-04-18T08:59:34.415Z,10.58
2023-04-18T09:00:34.414Z,11.22
2023-04-18T09:01:34.459Z,10.26
2023-04-18T09:02:34.478Z,9.72
2023-04-18T09:03:34.464Z,9.03
2023-04-18T09:04:34.467Z,9.46
2023-04-18T09:05:34.412Z,9.85
2023-04-18T09:06:34.611Z,9.72
2023-04-18T09:07:34.389Z,9.41
2023-04-18T09:08:34.387Z,9.06
2023-04-18T09:09:34.430Z,9.17
2023-04-18T09:10:34.435Z,9.22
2023-04-18T09:11:34.438Z,9.54
2023-04-18T09:12:34.423Z,9.38
2023-04-18T09:13:34.417Z,9.28
2023-04-18T09:14:34.390Z,9.40
2023-04-18T09:15:34.444Z,9.27
2023-04-18T09:16:34.496Z,9.08
2023-04-18T09:17:34.514Z,8.75
2023-04-18T09:18:34.390Z,8.82
2023-04-18T09:19:34.694Z,8.80
2023-04-18T09:20:34.561Z,9.18
2023-04-18T09:21:34.404Z,9.12
2023-04-18T09:22:34.409Z,9.12
2023-04-18T09:23:34.423Z,8.87
2023-04-18T09:24:34.477Z,8.91
2023-04-18T09:25:34.509Z,8.69
2023-04-18T09:26:34.426Z,8.81
2023-04-18T09:27:34.419Z,8.70
2023-04-18T09:28:34.415Z,8.94
2023-04-18T09:29:34.400Z,8.82
2023-04-18T09:30:34.439Z,8.47
2023-04-18T09:31:34.806Z,8.29
2023-04-18T09:32:34.424Z,8.58
2023-04-18T09:33:34.409Z,8.52
2023-04-18T09:34:34.416Z,8.36
2023-04-18T09:35:34.472Z,8.31
2023-04-18T09:36:34.676Z,8.31
2023-04-18T09:37:34.402Z,8.24
2023-04-18T09:38:34.383Z,8.42
2023-04-18T09:39:34.412Z,8.46
2023-04-18T09:40:34.402Z,8.60
2023-04-18T09:41:34.647Z,8.67
2023-04-18T09:42:34.386Z,8.62
2023-04-18T09:43:34.367Z,7.94
2023-04-18T09:44:34.364Z,7.96
2023-04-18T09:45:34.411Z,8.10
2023-04-18T09:46:34.569Z,7.61
2023-04-18T09:47:34.429Z,5.35
2023-04-18T09:48:34.418Z,6.29
2023-04-18T09:49:34.415Z,8.86
2023-04-18T09:50:34.498Z,9.20
2023-04-18T09:51:34.692Z,9.27
2023-04-18T09:52:34.600Z,9.25
2023-04-18T09:53:34.649Z,9.65
2023-04-18T09:54:34.730Z,10.11
2023-04-18T09:55:34.767Z,10.58
2023-04-18T09:56:34.809Z,11.18
2023-04-18T09:57:34.892Z,11.87
2023-04-18T09:58:34.955Z,12.39
2023-04-18T09:59:34.998Z,12.59
2023-04-18T10:00:35.070Z,12.32
2023-04-18T10:01:35.136Z,12.93
2023-04-18T10:02:35.247Z,13.68
2023-04-18T10:03:35.330Z,13.99
2023-04-18T10:04:35.584Z,15.01
2023-04-18T10:05:35.263Z,14.44
2023-04-18T10:06:35.283Z,14.51
2023-04-18T10:07:35.657Z,14.79
2023-04-18T10:08:35.369Z,14.83
2023-04-18T10:09:35.410Z,15.23
2023-04-18T10:10:35.427Z,15.07
2023-04-18T10:11:35.463Z,14.39
2023-04-18T10:12:35.487Z,14.16
2023-04-18T10:13:35.509Z,14.42
2023-04-18T10:14:35.555Z,14.87
2023-04-18T10:15:35.624Z,14.94
2023-04-18T10:16:36.426Z,15.43
2023-04-18T10:17:35.644Z,15.16
2023-04-18T10:18:35.694Z,15.78
2023-04-18T10:19:35.692Z,16.81
2023-04-18T10:20:35.876Z,17.22
2023-04-18T10:21:35.724Z,18.19
2023-04-18T10:22:35.732Z,18.65
2023-04-18T10:23:35.820Z,20.29
2023-04-18T10:24:35.784Z,21.10
2023-04-18T10:25:35.782Z,21.65
2023-04-18T10:26:35.818Z,22.74
2023-04-18T10:27:35.823Z,24.22
2023-04-18T10:28:35.824Z,25.05
2023-04-18T10:29:35.860Z,24.87
2023-04-18T10:30:35.863Z,24.34
2023-04-18T10:31:35.945Z,24.35
2023-04-18T10:32:35.869Z,23.22
2023-04-18T10:33:35.993Z,23.04
2023-04-18T10:34:36.918Z,23.07
2023-04-18T10:35:35.903Z,21.51
2023-04-18T10:36:36.174Z,20.26
2023-04-18T10:37:35.875Z,19.81
2023-04-18T10:38:35.908Z,19.18
2023-04-18T10:39:35.859Z,17.44
2023-04-18T10:40:35.829Z,16.11
2023-04-18T10:41:35.856Z,14.03
2023-04-18T10:42:35.839Z,15.28
2023-04-18T10:43:35.823Z,14.38
2023-04-18T10:44:35.810Z,13.86
2023-04-18T10:45:35.831Z,14.24
2023-04-18T10:46:35.834Z,13.87
2023-04-18T10:47:35.942Z,13.84
2023-04-18T10:48:38.621Z,13.31
2023-04-18T10:49:35.768Z,13.53
2023-04-18T10:50:35.755Z,13.38
2023-04-18T10:51:36.188Z,13.02
2023-04-18T10:52:35.897Z,13.55
2023-04-18T10:53:35.824Z,13.87
2023-04-18T10:54:35.828Z,13.45
2023-04-18T10:55:35.907Z,13.29
2023-04-18T10:56:35.781Z,13.62
2023-04-18T10:57:35.737Z,13.96
2023-04-18T10:58:35.740Z,14.29
2023-04-18T10:59:35.702Z,13.93
2023-04-18T11:00:35.728Z,13.79
2023-04-18T11:01:35.776Z,13.64
2023-04-18T11:02:35.768Z,13.09
2023-04-18T11:03:35.880Z,12.32
2023-04-18T11:04:35.697Z,11.84
2023-04-18T11:05:35.720Z,11.70
2023-04-18T11:06:35.676Z,11.66
2023-04-18T11:07:35.662Z,11.43
2023-04-18T11:08:35.858Z,11.00
2023-04-18T11:09:35.661Z,6.77
2023-04-18T11:10:35.652Z,5.67
2023-04-18T11:11:35.642Z,6.27
2023-04-18T11:12:36.374Z,6.60
2023-04-18T11:13:35.645Z,6.41
2023-04-18T11:14:35.635Z,6.23
2023-04-18T11:15:35.600Z,6.08
2023-04-18T11:16:35.695Z,5.95
2023-04-18T11:17:35.628Z,5.98
2023-04-18T11:18:35.608Z,5.98
2023-04-18T11:19:35.591Z,6.09
2023-04-18T11:20:35.569Z,6.21
2023-04-18T11:21:35.668Z,6.37
2023-04-18T11:22:35.586Z,6.65
2023-04-18T11:23:35.542Z,6.12
2023-04-18T11:24:35.602Z,5.55
2023-04-18T11:25:35.512Z,5.55
2023-04-18T11:26:36.226Z,5.82
2023-04-18T11:27:35.614Z,6.06
2023-04-18T11:28:35.513Z,5.90
2023-04-18T11:29:35.513Z,5.41
2023-04-18T11:30:35.484Z,5.23
2023-04-18T11:31:35.614Z,5.18
2023-04-18T11:32:35.755Z,4.70
2023-04-18T11:33:35.511Z,5.26
2023-04-18T11:34:35.465Z,4.39
2023-04-18T11:35:35.448Z,4.69
2023-04-18T11:36:35.472Z,4.54
2023-04-18T11:37:35.688Z,3.89
2023-04-18T11:38:35.470Z,4.05
2023-04-18T11:39:35.456Z,4.00
2023-04-18T11:40:35.471Z,4.13
2023-04-18T11:41:35.471Z,4.16
2023-04-18T11:42:35.482Z,4.22
2023-04-18T11:43:35.417Z,4.27
2023-04-18T11:44:36.352Z,4.57
2023-04-18T11:45:35.442Z,4.34
2023-04-18T11:46:35.550Z,3.69
2023-04-18T11:47:35.539Z,3.68
2023-04-18T11:48:35.554Z,3.96
2023-04-18T11:49:35.552Z,3.85
2023-04-18T11:50:35.630Z,3.99
2023-04-18T11:51:35.754Z,4.52
2023-04-18T11:52:35.743Z,4.23
2023-04-18T11:53:35.782Z,4.31
2023-04-18T11:54:35.803Z,4.31
2023-04-18T11:55:35.817Z,5.15
2023-04-18T11:56:36.943Z,5.11
2023-04-18T11:57:35.920Z,4.85
2023-04-18T11:58:35.922Z,4.95
2023-04-18T11:59:35.991Z,5.19
2023-04-18T12:00:36.018Z,5.12
2023-04-18T12:01:36.010Z,5.16
2023-04-18T12:02:36.147Z,5.48
2023-04-18T12:03:36.280Z,5.52
2023-04-18T12:04:36.241Z,5.40
2023-04-18T12:05:36.366Z,5.55
2023-04-18T12:06:36.039Z,5.46
2023-04-18T12:07:36.127Z,5.69
2023-04-18T12:08:36.062Z,5.81
2023-04-18T12:09:36.068Z,5.60
2023-04-18T12:10:36.111Z,5.76
2023-04-18T12:11:36.089Z,5.76
2023-04-18T12:12:36.100Z,5.86
2023-04-18T12:13:36.106Z,5.47
2023-04-18T12:14:36.089Z,5.49
2023-04-18T12:15:36.221Z,5.78
2023-04-18T12:16:36.097Z,6.09
2023-04-18T12:17:36.170Z,6.55
2023-04-18T12:18:36.070Z,6.39
2023-04-18T12:19:36.077Z,6.62
2023-04-18T12:20:36.083Z,6.70
2023-04-18T12:21:36.099Z,6.57
2023-04-18T12:22:36.148Z,6.36
2023-04-18T12:23:36.123Z,6.48
2023-04-18T12:24:36.087Z,6.36
2023-04-18T12:25:36.085Z,6.25
2023-04-18T12:26:36.091Z,5.41
2023-04-18T12:27:36.122Z,4.13
2023-04-18T12:28:36.090Z,4.00
2023-04-18T12:29:36.082Z,3.87
2023-04-18T12:30:37.824Z,4.32
2023-04-18T12:31:36.144Z,4.24
2023-04-18T12:32:36.151Z,4.59
2023-04-18T12:33:36.130Z,4.73
2023-04-18T12:34:36.156Z,4.80
2023-04-18T12:35:36.167Z,4.83
2023-04-18T12:36:36.152Z,4.96
2023-04-18T12:37:36.169Z,4.79
2023-04-18T12:38:36.166Z,4.93
2023-04-18T12:39:36.207Z,4.96
2023-04-18T12:40:36.231Z,4.96
2023-04-18T12:41:36.283Z,3.44
2023-04-18T12:42:36.273Z,3.46
2023-04-18T12:43:36.295Z,3.57
2023-04-18T12:44:36.343Z,3.77
2023-04-18T12:45:36.325Z,3.97
2023-04-18T12:46:36.417Z,3.98
2023-04-18T12:47:36.538Z,3.89
2023-04-18T12:48:36.417Z,3.95
2023-04-18T12:49:36.422Z,3.88
2023-04-18T12:50:36.459Z,3.91
2023-04-18T12:51:36.501Z,3.89
2023-04-18T12:52:36.514Z,3.93
2023-04-18T12:53:36.555Z,3.86
2023-04-18T12:54:37.895Z,4.00
2023-04-18T12:55:36.606Z,4.00
2023-04-18T12:56:36.589Z,3.78
2023-04-18T12:57:36.638Z,3.89
2023-04-18T12:58:36.695Z,3.66
2023-04-18T12:59:36.716Z,3.69
2023-04-18T13:00:36.721Z,3.87
2023-04-18T13:01:36.822Z,3.93
2023-04-18T13:02:36.920Z,3.70
2023-04-18T13:03:37.077Z,3.48
2023-04-18T13:04:36.968Z,3.60
2023-04-18T13:05:36.844Z,3.79
2023-04-18T13:06:36.867Z,3.54
2023-04-18T13:07:36.878Z,3.40
2023-04-18T13:08:36.906Z,3.43
2023-04-18T13:09:36.933Z,3.46
2023-04-18T13:10:36.937Z,3.44
2023-04-18T13:11:36.981Z,3.31
2023-04-18T13:12:37.039Z,3.25
2023-04-18T13:13:37.029Z,3.32
2023-04-18T13:14:37.072Z,3.37